sensor_id;sensor_type;location;lat;lon;timestamp;P1;durP1;ratioP1;P2;durP2;ratioP2
21281;SDS011;10800;53.096;18.328;2022-12-01T00:02:19;7.83;;;4.50;;
21281;SDS011;10800;53.096;18.328;2022-12-01T00:07:26;20.43;;;5.67;;
21281;SDS011;10800;53.096;18.328;2022-12-01T00:12:33;8.40;;;5.27;;
21281;SDS011;10800;53.096;18.328;2022-12-01T00:17:43;12.00;;;4.57;;
21281;SDS011;10800;53.096;18.328;2022-12-01T00:22:52;19.50;;;7.23;;
21281;SDS011;10800;53.096;18.328;2022-12-01T00:27:59;12.47;;;5.30;;
21281;SDS011;10800;53.096;18.328;2022-12-01T00:33:07;24.20;;;7.57;;
21281;SDS011;10800;53.096;18.328;2022-12-01T00:38:12;11.60;;;5.27;;
21281;SDS011;10800;53.096;18.328;2022-12-01T00:43:18;12.70;;;7.23;;
21281;SDS011;10800;53.096;18.328;2022-12-01T00:48:24;19.60;;;6.53;;
21281;SDS011;10800;53.096;18.328;2022-12-01T00:53:30;24.33;;;7.97;;
21281;SDS011;10800;53.096;18.328;2022-12-01T00:58:37;21.60;;;7.23;;
21281;SDS011;10800;53.096;18.328;2022-12-01T01:03:42;22.87;;;7.57;;
21281;SDS011;10800;53.096;18.328;2022-12-01T01:08:48;20.63;;;8.43;;
21281;SDS011;10800;53.096;18.328;2022-12-01T01:13:54;20.93;;;8.60;;
21281;SDS011;10800;53.096;18.328;2022-12-01T01:18:59;23.67;;;9.73;;
21281;SDS011;10800;53.096;18.328;2022-12-01T01:24:05;25.83;;;8.80;;
21281;SDS011;10800;53.096;18.328;2022-12-01T01:29:13;23.57;;;10.00;;
21281;SDS011;10800;53.096;18.328;2022-12-01T01:34:18;24.00;;;9.13;;
21281;SDS011;10800;53.096;18.328;2022-12-01T01:39:25;23.77;;;8.47;;
21281;SDS011;10800;53.096;18.328;2022-12-01T01:44:48;28.43;;;10.77;;
21281;SDS011;10800;53.096;18.328;2022-12-01T01:50:10;15.07;;;7.70;;
21281;SDS011;10800;53.096;18.328;2022-12-01T01:55:18;27.77;;;7.37;;
21281;SDS011;10800;53.096;18.328;2022-12-01T02:00:28;24.93;;;8.83;;
21281;SDS011;10800;53.096;18.328;2022-12-01T02:05:34;20.33;;;8.73;;
21281;SDS011;10800;53.096;18.328;2022-12-01T02:21:23;35.17;;;9.97;;
21281;SDS011;10800;53.096;18.328;2022-12-01T02:26:43;22.50;;;9.27;;
21281;SDS011;10800;53.096;18.328;2022-12-01T02:37:30;26.03;;;7.83;;
21281;SDS011;10800;53.096;18.328;2022-12-01T02:53:26;20.33;;;7.60;;
21281;SDS011;10800;53.096;18.328;2022-12-01T02:58:32;22.33;;;7.27;;
21281;SDS011;10800;53.096;18.328;2022-12-01T03:14:42;11.83;;;6.17;;
21281;SDS011;10800;53.096;18.328;2022-12-01T03:19:56;7.83;;;4.90;;
21281;SDS011;10800;53.096;18.328;2022-12-01T03:25:06;9.90;;;6.07;;
21281;SDS011;10800;53.096;18.328;2022-12-01T03:30:15;13.20;;;5.77;;
21281;SDS011;10800;53.096;18.328;2022-12-01T03:35:26;16.27;;;7.77;;
21281;SDS011;10800;53.096;18.328;2022-12-01T03:40:58;13.47;;;6.40;;
21281;SDS011;10800;53.096;18.328;2022-12-01T03:46:09;13.07;;;6.47;;
21281;SDS011;10800;53.096;18.328;2022-12-01T03:51:22;21.23;;;7.47;;
21281;SDS011;10800;53.096;18.328;2022-12-01T03:56:38;15.77;;;6.97;;
21281;SDS011;10800;53.096;18.328;2022-12-01T04:01:46;10.87;;;5.23;;
21281;SDS011;10800;53.096;18.328;2022-12-01T04:06:53;16.37;;;6.50;;
21281;SDS011;10800;53.096;18.328;2022-12-01T04:11:58;19.47;;;7.47;;
21281;SDS011;10800;53.096;18.328;2022-12-01T04:17:23;12.23;;;5.53;;
21281;SDS011;10800;53.096;18.328;2022-12-01T04:22:30;17.67;;;6.30;;
21281;SDS011;10800;53.096;18.328;2022-12-01T04:27:38;20.57;;;7.20;;
21281;SDS011;10800;53.096;18.328;2022-12-01T04:32:43;15.47;;;7.13;;
21281;SDS011;10800;53.096;18.328;2022-12-01T04:37:49;14.93;;;6.87;;
21281;SDS011;10800;53.096;18.328;2022-12-01T04:42:54;18.17;;;6.67;;
21281;SDS011;10800;53.096;18.328;2022-12-01T04:48:00;20.03;;;8.37;;
21281;SDS011;10800;53.096;18.328;2022-12-01T04:53:08;16.57;;;6.90;;
21281;SDS011;10800;53.096;18.328;2022-12-01T04:58:14;19.53;;;6.43;;
21281;SDS011;10800;53.096;18.328;2022-12-01T05:03:19;10.03;;;5.77;;
21281;SDS011;10800;53.096;18.328;2022-12-01T05:08:24;15.03;;;6.37;;
21281;SDS011;10800;53.096;18.328;2022-12-01T05:13:31;15.73;;;7.57;;
21281;SDS011;10800;53.096;18.328;2022-12-01T05:18:38;17.87;;;5.80;;
21281;SDS011;10800;53.096;18.328;2022-12-01T05:23:44;20.43;;;7.73;;
21281;SDS011;10800;53.096;18.328;2022-12-01T05:28:50;22.33;;;8.87;;
21281;SDS011;10800;53.096;18.328;2022-12-01T05:33:55;19.47;;;8.23;;
21281;SDS011;10800;53.096;18.328;2022-12-01T05:39:01;15.67;;;6.57;;
21281;SDS011;10800;53.096;18.328;2022-12-01T05:44:06;18.10;;;8.07;;
21281;SDS011;10800;53.096;18.328;2022-12-01T05:49:11;18.67;;;8.87;;
21281;SDS011;10800;53.096;18.328;2022-12-01T05:54:29;24.83;;;8.33;;
21281;SDS011;10800;53.096;18.328;2022-12-01T06:00:05;21.10;;;7.73;;
21281;SDS011;10800;53.096;18.328;2022-12-01T06:05:33;19.07;;;8.27;;
21281;SDS011;10800;53.096;18.328;2022-12-01T06:11:11;18.37;;;7.10;;
21281;SDS011;10800;53.096;18.328;2022-12-01T06:16:18;15.37;;;6.90;;
21281;SDS011;10800;53.096;18.328;2022-12-01T06:21:23;18.37;;;7.77;;
21281;SDS011;10800;53.096;18.328;2022-12-01T06:26:33;16.73;;;6.87;;
21281;SDS011;10800;53.096;18.328;2022-12-01T06:42:59;41.00;;;10.93;;
21281;SDS011;10800;53.096;18.328;2022-12-01T06:48:20;13.00;;;6.33;;
21281;SDS011;10800;53.096;18.328;2022-12-01T06:53:43;16.57;;;8.03;;
21281;SDS011;10800;53.096;18.328;2022-12-01T06:58:57;27.90;;;6.20;;
21281;SDS011;10800;53.096;18.328;2022-12-01T07:04:03;15.30;;;5.90;;
21281;SDS011;10800;53.096;18.328;2022-12-01T07:09:09;10.80;;;4.70;;
21281;SDS011;10800;53.096;18.328;2022-12-01T07:14:22;11.30;;;6.53;;
21281;SDS011;10800;53.096;18.328;2022-12-01T07:19:29;19.27;;;5.57;;
21281;SDS011;10800;53.096;18.328;2022-12-01T07:24:35;12.43;;;5.67;;
21281;SDS011;10800;53.096;18.328;2022-12-01T07:29:40;15.67;;;6.60;;
21281;SDS011;10800;53.096;18.328;2022-12-01T07:34:46;19.53;;;7.80;;
21281;SDS011;10800;53.096;18.328;2022-12-01T07:39:51;12.83;;;6.73;;
21281;SDS011;10800;53.096;18.328;2022-12-01T07:44:57;20.70;;;7.10;;
21281;SDS011;10800;53.096;18.328;2022-12-01T07:50:02;13.20;;;6.00;;
21281;SDS011;10800;53.096;18.328;2022-12-01T07:55:08;9.17;;;6.03;;
21281;SDS011;10800;53.096;18.328;2022-12-01T08:00:13;14.47;;;6.90;;
21281;SDS011;10800;53.096;18.328;2022-12-01T08:05:19;16.13;;;7.13;;
21281;SDS011;10800;53.096;18.328;2022-12-01T08:10:24;11.53;;;6.10;;
21281;SDS011;10800;53.096;18.328;2022-12-01T08:15:30;13.30;;;6.17;;
21281;SDS011;10800;53.096;18.328;2022-12-01T08:20:35;10.83;;;6.53;;
21281;SDS011;10800;53.096;18.328;2022-12-01T08:25:41;12.07;;;4.37;;
21281;SDS011;10800;53.096;18.328;2022-12-01T08:30:47;11.67;;;4.47;;
21281;SDS011;10800;53.096;18.328;2022-12-01T08:35:52;13.27;;;8.03;;
21281;SDS011;10800;53.096;18.328;2022-12-01T08:41:01;25.13;;;7.57;;
21281;SDS011;10800;53.096;18.328;2022-12-01T08:46:07;16.47;;;8.17;;
21281;SDS011;10800;53.096;18.328;2022-12-01T08:51:15;11.17;;;5.93;;
21281;SDS011;10800;53.096;18.328;2022-12-01T09:01:30;10.90;;;5.27;;
21281;SDS011;10800;53.096;18.328;2022-12-01T09:06:39;10.03;;;4.90;;
21281;SDS011;10800;53.096;18.328;2022-12-01T09:11:46;6.87;;;4.73;;
21281;SDS011;10800;53.096;18.328;2022-12-01T09:16:52;9.30;;;5.00;;
21281;SDS011;10800;53.096;18.328;2022-12-01T09:21:58;13.10;;;4.77;;
21281;SDS011;10800;53.096;18.328;2022-12-01T09:27:04;9.63;;;5.83;;
21281;SDS011;10800;53.096;18.328;2022-12-01T09:32:09;30.73;;;11.27;;
21281;SDS011;10800;53.096;18.328;2022-12-01T09:37:15;12.80;;;5.37;;
21281;SDS011;10800;53.096;18.328;2022-12-01T09:42:21;7.83;;;4.63;;
21281;SDS011;10800;53.096;18.328;2022-12-01T09:47:31;16.83;;;4.30;;
21281;SDS011;10800;53.096;18.328;2022-12-01T09:52:45;13.07;;;5.37;;
21281;SDS011;10800;53.096;18.328;2022-12-01T09:57:55;8.43;;;4.73;;
21281;SDS011;10800;53.096;18.328;2022-12-01T10:08:12;15.00;;;5.67;;
21281;SDS011;10800;53.096;18.328;2022-12-01T10:13:25;8.93;;;4.17;;
21281;SDS011;10800;53.096;18.328;2022-12-01T10:28:52;9.53;;;4.03;;
21281;SDS011;10800;53.096;18.328;2022-12-01T10:34:22;8.90;;;3.83;;
21281;SDS011;10800;53.096;18.328;2022-12-01T10:39:38;7.77;;;4.10;;
21281;SDS011;10800;53.096;18.328;2022-12-01T10:45:23;7.87;;;5.10;;
21281;SDS011;10800;53.096;18.328;2022-12-01T10:50:30;6.33;;;3.73;;
21281;SDS011;10800;53.096;18.328;2022-12-01T10:55:37;10.40;;;4.10;;
21281;SDS011;10800;53.096;18.328;2022-12-01T11:00:53;9.60;;;4.30;;
21281;SDS011;10800;53.096;18.328;2022-12-01T11:06:03;13.00;;;4.73;;
21281;SDS011;10800;53.096;18.328;2022-12-01T11:16:36;18.20;;;4.50;;
21281;SDS011;10800;53.096;18.328;2022-12-01T11:21:44;8.30;;;4.47;;
21281;SDS011;10800;53.096;18.328;2022-12-01T11:26:55;5.90;;;3.43;;
21281;SDS011;10800;53.096;18.328;2022-12-01T11:32:10;6.37;;;4.10;;
21281;SDS011;10800;53.096;18.328;2022-12-01T11:37:14;9.77;;;3.90;;
21281;SDS011;10800;53.096;18.328;2022-12-01T11:42:23;13.47;;;4.93;;
21281;SDS011;10800;53.096;18.328;2022-12-01T11:47:36;6.60;;;3.63;;
21281;SDS011;10800;53.096;18.328;2022-12-01T11:52:45;10.00;;;3.70;;
21281;SDS011;10800;53.096;18.328;2022-12-01T11:57:52;9.20;;;3.67;;
21281;SDS011;10800;53.096;18.328;2022-12-01T12:03:17;9.53;;;4.40;;
21281;SDS011;10800;53.096;18.328;2022-12-01T12:30:06;13.60;;;5.53;;
21281;SDS011;10800;53.096;18.328;2022-12-01T12:41:34;14.87;;;6.03;;
21281;SDS011;10800;53.096;18.328;2022-12-01T12:45:59;11.03;;;5.40;;
21281;SDS011;10800;53.096;18.328;2022-12-01T12:56:21;9.40;;;4.50;;
21281;SDS011;10800;53.096;18.328;2022-12-01T13:01:52;10.47;;;4.37;;
21281;SDS011;10800;53.096;18.328;2022-12-01T13:06:47;10.40;;;4.40;;
21281;SDS011;10800;53.096;18.328;2022-12-01T13:12:04;6.67;;;4.43;;
21281;SDS011;10800;53.096;18.328;2022-12-01T13:17:15;9.50;;;4.63;;
21281;SDS011;10800;53.096;18.328;2022-12-01T13:22:29;7.13;;;3.53;;
21281;SDS011;10800;53.096;18.328;2022-12-01T13:27:39;6.67;;;2.87;;
21281;SDS011;10800;53.096;18.328;2022-12-01T13:32:48;3.70;;;3.07;;
21281;SDS011;10800;53.096;18.328;2022-12-01T13:38:10;4.97;;;2.93;;
21281;SDS011;10800;53.096;18.328;2022-12-01T13:43:24;7.83;;;3.53;;
21281;SDS011;10800;53.096;18.328;2022-12-01T14:04:47;5.47;;;3.43;;
21281;SDS011;10800;53.096;18.328;2022-12-01T14:09:55;5.17;;;2.63;;
21281;SDS011;10800;53.096;18.328;2022-12-01T14:15:04;2.93;;;2.37;;
21281;SDS011;10800;53.096;18.328;2022-12-01T14:25:24;5.27;;;2.57;;
21281;SDS011;10800;53.096;18.328;2022-12-01T14:40:54;7.87;;;2.93;;
21281;SDS011;10800;53.096;18.328;2022-12-01T14:46:06;10.87;;;4.37;;
21281;SDS011;10800;53.096;18.328;2022-12-01T14:56:42;6.23;;;3.37;;
21281;SDS011;10800;53.096;18.328;2022-12-01T15:01:51;5.30;;;3.43;;
21281;SDS011;10800;53.096;18.328;2022-12-01T15:06:59;12.97;;;4.53;;
21281;SDS011;10800;53.096;18.328;2022-12-01T15:12:05;8.80;;;3.67;;
21281;SDS011;10800;53.096;18.328;2022-12-01T15:17:33;19.50;;;8.93;;
21281;SDS011;10800;53.096;18.328;2022-12-01T15:22:45;12.30;;;6.17;;
21281;SDS011;10800;53.096;18.328;2022-12-01T15:28:02;11.80;;;6.80;;
21281;SDS011;10800;53.096;18.328;2022-12-01T15:33:23;5.00;;;2.93;;
21281;SDS011;10800;53.096;18.328;2022-12-01T15:38:33;6.33;;;4.37;;
21281;SDS011;10800;53.096;18.328;2022-12-01T15:43:40;9.83;;;4.10;;
21281;SDS011;10800;53.096;18.328;2022-12-01T15:48:46;17.97;;;6.17;;
21281;SDS011;10800;53.096;18.328;2022-12-01T15:53:53;6.50;;;3.40;;
21281;SDS011;10800;53.096;18.328;2022-12-01T15:59:23;9.50;;;3.37;;
21281;SDS011;10800;53.096;18.328;2022-12-01T16:04:19;10.87;;;5.53;;
21281;SDS011;10800;53.096;18.328;2022-12-01T16:09:42;12.00;;;4.17;;
21281;SDS011;10800;53.096;18.328;2022-12-01T16:14:51;14.40;;;5.10;;
21281;SDS011;10800;53.096;18.328;2022-12-01T16:25:40;16.77;;;5.30;;
21281;SDS011;10800;53.096;18.328;2022-12-01T16:30:47;18.83;;;6.60;;
21281;SDS011;10800;53.096;18.328;2022-12-01T16:35:53;18.07;;;6.43;;
21281;SDS011;10800;53.096;18.328;2022-12-01T16:41:01;18.40;;;6.00;;
21281;SDS011;10800;53.096;18.328;2022-12-01T16:46:19;13.13;;;6.53;;
21281;SDS011;10800;53.096;18.328;2022-12-01T16:51:24;22.87;;;9.40;;
21281;SDS011;10800;53.096;18.328;2022-12-01T16:56:31;48.60;;;13.13;;
21281;SDS011;10800;53.096;18.328;2022-12-01T17:01:37;33.87;;;11.47;;
21281;SDS011;10800;53.096;18.328;2022-12-01T17:06:42;31.97;;;11.00;;
21281;SDS011;10800;53.096;18.328;2022-12-01T17:11:47;17.70;;;9.07;;
21281;SDS011;10800;53.096;18.328;2022-12-01T17:16:53;19.20;;;9.83;;
21281;SDS011;10800;53.096;18.328;2022-12-01T17:22:00;13.53;;;6.43;;
21281;SDS011;10800;53.096;18.328;2022-12-01T17:27:05;13.57;;;6.23;;
21281;SDS011;10800;53.096;18.328;2022-12-01T17:32:11;11.80;;;5.97;;
21281;SDS011;10800;53.096;18.328;2022-12-01T17:37:18;23.93;;;8.70;;
21281;SDS011;10800;53.096;18.328;2022-12-01T17:42:34;13.23;;;6.10;;
21281;SDS011;10800;53.096;18.328;2022-12-01T17:47:36;10.80;;;5.10;;
21281;SDS011;10800;53.096;18.328;2022-12-01T17:52:41;14.57;;;6.80;;
21281;SDS011;10800;53.096;18.328;2022-12-01T17:57:46;15.37;;;7.33;;
21281;SDS011;10800;53.096;18.328;2022-12-01T18:02:57;23.57;;;9.43;;
21281;SDS011;10800;53.096;18.328;2022-12-01T18:08:03;28.07;;;9.63;;
21281;SDS011;10800;53.096;18.328;2022-12-01T18:13:09;21.40;;;10.03;;
21281;SDS011;10800;53.096;18.328;2022-12-01T18:18:15;24.40;;;10.23;;
21281;SDS011;10800;53.096;18.328;2022-12-01T18:23:21;45.87;;;20.13;;
21281;SDS011;10800;53.096;18.328;2022-12-01T18:28:26;40.43;;;15.17;;
21281;SDS011;10800;53.096;18.328;2022-12-01T18:33:31;24.63;;;9.17;;
21281;SDS011;10800;53.096;18.328;2022-12-01T18:38:37;42.37;;;10.67;;
21281;SDS011;10800;53.096;18.328;2022-12-01T18:43:43;61.37;;;16.13;;
21281;SDS011;10800;53.096;18.328;2022-12-01T18:48:49;56.30;;;18.93;;
21281;SDS011;10800;53.096;18.328;2022-12-01T18:53:57;21.57;;;9.10;;
21281;SDS011;10800;53.096;18.328;2022-12-01T18:59:04;31.60;;;10.87;;
21281;SDS011;10800;53.096;18.328;2022-12-01T19:04:12;42.07;;;10.00;;
21281;SDS011;10800;53.096;18.328;2022-12-01T19:09:25;24.37;;;9.87;;
21281;SDS011;10800;53.096;18.328;2022-12-01T19:14:30;57.73;;;13.90;;
21281;SDS011;10800;53.096;18.328;2022-12-01T19:19:35;37.50;;;10.13;;
21281;SDS011;10800;53.096;18.328;2022-12-01T19:24:41;39.83;;;8.27;;
21281;SDS011;10800;53.096;18.328;2022-12-01T19:29:48;33.03;;;11.37;;
21281;SDS011;10800;53.096;18.328;2022-12-01T19:34:55;41.33;;;11.73;;
21281;SDS011;10800;53.096;18.328;2022-12-01T19:40:00;72.77;;;21.80;;
21281;SDS011;10800;53.096;18.328;2022-12-01T19:45:05;40.53;;;12.60;;
21281;SDS011;10800;53.096;18.328;2022-12-01T19:50:11;39.50;;;12.77;;
21281;SDS011;10800;53.096;18.328;2022-12-01T19:55:17;22.77;;;9.17;;
21281;SDS011;10800;53.096;18.328;2022-12-01T20:00:23;40.30;;;10.83;;
21281;SDS011;10800;53.096;18.328;2022-12-01T20:05:28;58.70;;;15.20;;
21281;SDS011;10800;53.096;18.328;2022-12-01T20:10:35;70.03;;;16.10;;
21281;SDS011;10800;53.096;18.328;2022-12-01T20:15:41;42.80;;;14.07;;
21281;SDS011;10800;53.096;18.328;2022-12-01T20:20:46;53.00;;;13.40;;
21281;SDS011;10800;53.096;18.328;2022-12-01T20:25:52;36.93;;;11.53;;
21281;SDS011;10800;53.096;18.328;2022-12-01T20:30:59;30.50;;;10.00;;
21281;SDS011;10800;53.096;18.328;2022-12-01T20:36:05;41.97;;;16.90;;
21281;SDS011;10800;53.096;18.328;2022-12-01T20:41:12;39.03;;;12.50;;
21281;SDS011;10800;53.096;18.328;2022-12-01T20:46:17;30.03;;;10.70;;
21281;SDS011;10800;53.096;18.328;2022-12-01T20:51:23;33.27;;;10.30;;
21281;SDS011;10800;53.096;18.328;2022-12-01T20:56:28;18.60;;;8.03;;
21281;SDS011;10800;53.096;18.328;2022-12-01T21:01:34;24.13;;;8.80;;
21281;SDS011;10800;53.096;18.328;2022-12-01T21:06:39;16.83;;;7.20;;
21281;SDS011;10800;53.096;18.328;2022-12-01T21:11:46;23.50;;;6.80;;
21281;SDS011;10800;53.096;18.328;2022-12-01T21:17:26;25.80;;;8.00;;
21281;SDS011;10800;53.096;18.328;2022-12-01T21:22:28;15.27;;;7.73;;
21281;SDS011;10800;53.096;18.328;2022-12-01T21:27:34;22.67;;;8.53;;
21281;SDS011;10800;53.096;18.328;2022-12-01T21:32:40;21.47;;;7.50;;
21281;SDS011;10800;53.096;18.328;2022-12-01T21:37:47;17.67;;;7.77;;
21281;SDS011;10800;53.096;18.328;2022-12-01T21:43:00;27.87;;;8.03;;
21281;SDS011;10800;53.096;18.328;2022-12-01T21:48:12;23.97;;;7.40;;
21281;SDS011;10800;53.096;18.328;2022-12-01T21:53:25;23.10;;;7.97;;
21281;SDS011;10800;53.096;18.328;2022-12-01T21:58:28;19.63;;;9.67;;
21281;SDS011;10800;53.096;18.328;2022-12-01T22:03:38;26.33;;;8.53;;
21281;SDS011;10800;53.096;18.328;2022-12-01T22:08:47;16.30;;;7.13;;
21281;SDS011;10800;53.096;18.328;2022-12-01T22:13:58;24.77;;;8.63;;
21281;SDS011;10800;53.096;18.328;2022-12-01T22:24:31;16.97;;;6.53;;
21281;SDS011;10800;53.096;18.328;2022-12-01T22:29:46;15.87;;;6.43;;
21281;SDS011;10800;53.096;18.328;2022-12-01T22:34:54;15.30;;;6.53;;
21281;SDS011;10800;53.096;18.328;2022-12-01T22:40:00;14.53;;;7.20;;
21281;SDS011;10800;53.096;18.328;2022-12-01T22:45:29;21.47;;;8.17;;
21281;SDS011;10800;53.096;18.328;2022-12-01T22:50:28;20.23;;;7.60;;
21281;SDS011;10800;53.096;18.328;2022-12-01T22:55:32;10.60;;;4.63;;
21281;SDS011;10800;53.096;18.328;2022-12-01T23:00:38;10.80;;;6.27;;
21281;SDS011;10800;53.096;18.328;2022-12-01T23:05:44;15.30;;;6.87;;
21281;SDS011;10800;53.096;18.328;2022-12-01T23:10:50;16.03;;;5.80;;
21281;SDS011;10800;53.096;18.328;2022-12-01T23:15:56;16.57;;;7.00;;
21281;SDS011;10800;53.096;18.328;2022-12-01T23:21:03;17.77;;;6.57;;
21281;SDS011;10800;53.096;18.328;2022-12-01T23:26:08;15.47;;;5.50;;
21281;SDS011;10800;53.096;18.328;2022-12-01T23:31:13;12.80;;;5.33;;
21281;SDS011;10800;53.096;18.328;2022-12-01T23:36:22;19.83;;;6.00;;
21281;SDS011;10800;53.096;18.328;2022-12-01T23:41:36;12.87;;;5.70;;
21281;SDS011;10800;53.096;18.328;2022-12-01T23:46:47;19.03;;;5.40;;
21281;SDS011;10800;53.096;18.328;2022-12-01T23:51:55;14.03;;;4.00;;
21281;SDS011;10800;53.096;18.328;2022-12-01T23:57:08;14.57;;;5.63;;
